createdAt,value
2018-05-01T06:45:37.986Z,22.53
2018-05-01T06:48:06.193Z,22.89
2018-05-01T06:50:35.821Z,23.08
2018-05-01T06:53:06.136Z,23.22
2018-05-01T06:55:35.068Z,23.21
2018-05-01T06:58:03.276Z,23.57
2018-05-01T07:00:32.458Z,23.78
2018-05-01T07:03:02.899Z,23.67
2018-05-01T07:05:32.260Z,23.48
2018-05-01T07:08:00.625Z,23.58
2018-05-01T07:10:28.846Z,23.63
2018-05-01T07:12:57.037Z,24.17
2018-05-01T07:15:25.279Z,24.26
2018-05-01T07:17:53.507Z,24.48
2018-05-01T07:20:22.547Z,24.16
2018-05-01T07:22:52.037Z,23.92
2018-05-01T07:25:22.318Z,24.00
2018-05-01T07:27:51.115Z,24.25
2018-05-01T07:30:19.350Z,24.19
2018-05-01T07:32:47.645Z,24.21
2018-05-01T07:35:15.906Z,24.62
2018-05-01T07:37:45.399Z,24.67
2018-05-01T07:40:16.190Z,24.66
2018-05-01T07:45:42.707Z,24.90
2018-05-01T07:48:10.898Z,25.06
2018-05-01T07:50:39.104Z,25.06
2018-05-01T07:53:08.632Z,24.81
2018-05-01T07:55:36.853Z,24.96
2018-05-01T07:58:05.852Z,24.78
2018-05-01T08:00:34.191Z,24.63
2018-05-01T08:03:02.369Z,24.64
2018-05-01T08:05:30.577Z,24.78
2018-05-01T08:07:58.797Z,24.96
2018-05-01T08:10:27.896Z,24.76
2018-05-01T08:12:56.870Z,24.58
2018-05-01T08:15:25.113Z,24.65
2018-05-01T08:17:53.349Z,24.64
2018-05-01T08:20:21.574Z,25.12
2018-05-01T08:22:49.825Z,24.98
2018-05-01T08:25:18.065Z,25.12
2018-05-01T08:27:46.568Z,25.41
2018-05-01T08:30:14.919Z,25.23
2018-05-01T08:32:43.962Z,25.30
2018-05-01T08:35:12.264Z,25.44
2018-05-01T08:37:40.546Z,25.11
2018-05-01T08:40:08.921Z,25.34
2018-05-01T08:42:37.189Z,25.77
2018-05-01T08:45:06.341Z,25.71
2018-05-01T08:47:34.610Z,25.69
2018-05-01T08:50:02.848Z,25.18
2018-05-01T08:52:31.081Z,25.14
2018-05-01T08:54:59.303Z,24.23
2018-05-01T08:57:27.642Z,24.01
2018-05-01T08:59:55.916Z,24.95
2018-05-01T09:02:24.136Z,25.78
2018-05-01T09:04:52.432Z,25.87
2018-05-01T09:07:21.395Z,25.31
2018-05-01T09:09:50.432Z,25.12
2018-05-01T09:12:19.538Z,25.56
2018-05-01T09:14:47.793Z,25.32
2018-05-01T09:17:16.758Z,25.37
2018-05-01T09:19:45.374Z,25.83
2018-05-01T09:22:13.667Z,25.83
2018-05-01T09:24:42.812Z,25.43
2018-05-01T09:27:11.051Z,25.63
2018-05-01T09:29:39.288Z,25.36
2018-05-01T09:32:08.257Z,25.59
2018-05-01T09:34:37.110Z,25.97
2018-05-01T09:37:05.319Z,26.54
2018-05-01T09:39:33.493Z,27.06
2018-05-01T09:42:01.734Z,26.74
2018-05-01T09:44:31.889Z,26.66
2018-05-01T09:47:00.270Z,26.52
2018-05-01T09:49:28.646Z,26.54
2018-05-01T09:51:56.928Z,26.89
2018-05-01T09:54:25.927Z,27.30
2018-05-01T09:56:54.702Z,27.46
2018-05-01T09:59:25.065Z,27.51
2018-05-01T10:01:53.903Z,27.69
2018-05-01T10:04:23.392Z,27.41
2018-05-01T10:06:52.277Z,27.39
2018-05-01T10:09:34.648Z,27.63
2018-05-01T10:12:03.487Z,28.20
2018-05-01T10:14:32.383Z,28.18
2018-05-01T10:17:01.166Z,28.16
2018-05-01T10:19:31.079Z,28.48
2018-05-01T10:21:59.926Z,28.01
2018-05-01T10:24:29.540Z,26.99
2018-05-01T10:26:59.201Z,27.72
2018-05-01T10:29:27.940Z,27.59
2018-05-01T10:31:56.685Z,27.92
2018-05-01T10:34:25.523Z,28.65
2018-05-01T10:36:55.029Z,27.95
2018-05-01T10:39:23.770Z,28.33
2018-05-01T10:41:52.641Z,27.65
2018-05-01T10:44:21.479Z,27.43
2018-05-01T10:46:50.683Z,28.17
2018-05-01T10:49:19.637Z,28.39
2018-05-01T10:51:48.329Z,28.65
2018-05-01T10:54:17.132Z,28.76
2018-05-01T10:56:46.005Z,28.42
2018-05-01T10:59:14.774Z,28.36
2018-05-01T11:01:43.668Z,27.76
2018-05-01T11:04:12.512Z,28.02
2018-05-01T11:06:41.398Z,28.49
2018-05-01T11:09:11.058Z,27.64
2018-05-01T11:11:39.901Z,26.70
2018-05-01T11:14:08.730Z,27.26
2018-05-01T11:16:37.558Z,26.45
2018-05-01T11:19:06.415Z,25.83
2018-05-01T11:21:35.555Z,26.16
2018-05-01T11:24:04.533Z,26.53
2018-05-01T11:26:33.389Z,27.01
2018-05-01T11:29:02.179Z,27.49
2018-05-01T11:31:31.723Z,27.29
2018-05-01T11:34:01.265Z,27.01
2018-05-01T11:36:30.790Z,27.51
2018-05-01T11:39:00.378Z,27.77
2018-05-01T11:41:29.181Z,27.97
2018-05-01T11:43:57.955Z,28.09
2018-05-01T11:46:26.788Z,27.79
2018-05-01T11:48:56.163Z,27.64
2018-05-01T11:51:25.733Z,27.80
2018-05-01T11:53:54.556Z,28.22
2018-05-01T11:56:23.461Z,28.52
2018-05-01T11:58:52.210Z,28.40
2018-05-01T12:01:21.014Z,28.20
2018-05-01T12:03:49.948Z,28.65
2018-05-01T12:06:18.782Z,28.83
2018-05-01T12:08:47.845Z,28.61
2018-05-01T12:11:16.669Z,28.91
2018-05-01T12:13:45.537Z,29.41
2018-05-01T12:16:14.566Z,28.56
2018-05-01T12:18:43.306Z,28.92
2018-05-01T12:21:12.123Z,29.31
2018-05-01T12:23:41.128Z,28.84
2018-05-01T12:26:10.351Z,28.32
2018-05-01T12:28:41.658Z,28.70
2018-05-01T12:31:11.237Z,27.97
2018-05-01T12:33:40.366Z,27.62
2018-05-01T12:36:09.223Z,27.63
2018-05-01T12:38:37.984Z,27.46
2018-05-01T12:41:07.034Z,27.26
2018-05-01T12:43:37.338Z,27.84
2018-05-01T12:46:06.141Z,28.02
2018-05-01T12:48:34.972Z,28.09
2018-05-01T12:51:03.784Z,27.95
2018-05-01T12:53:32.586Z,28.42
2018-05-01T12:56:03.622Z,28.56
2018-05-01T12:58:32.440Z,28.63
2018-05-01T13:01:01.217Z,28.56
2018-05-01T13:03:30.089Z,28.87
2018-05-01T13:06:00.502Z,29.28
2018-05-01T13:08:29.219Z,29.42
2018-05-01T13:10:59.365Z,29.23
2018-05-01T13:13:29.847Z,29.36
2018-05-01T13:15:59.604Z,29.37
2018-05-01T13:18:28.451Z,29.22
2018-05-01T13:20:58.355Z,29.30
2018-05-01T13:23:27.890Z,29.56
2018-05-01T13:25:56.710Z,29.61
2018-05-01T13:28:26.365Z,29.67
2018-05-01T13:30:55.979Z,29.74
2018-05-01T13:33:26.069Z,29.25
2018-05-01T13:35:56.336Z,28.16
2018-05-01T13:38:25.112Z,27.67
2018-05-01T13:40:55.279Z,27.69
2018-05-01T13:43:24.966Z,28.45
2018-05-01T13:45:54.337Z,28.24
2018-05-01T13:48:23.873Z,27.83
2018-05-01T13:50:53.441Z,27.60
2018-05-01T13:53:23.038Z,27.27
2018-05-01T13:55:51.819Z,27.45
2018-05-01T13:58:20.611Z,27.61
2018-05-01T14:00:49.338Z,27.91
2018-05-01T14:03:18.116Z,27.65
2018-05-01T14:05:48.088Z,27.19
2018-05-01T14:08:16.850Z,27.21
2018-05-01T14:10:46.184Z,27.93
2018-05-01T14:13:15.150Z,28.54
2018-05-01T14:15:43.954Z,28.28
2018-05-01T14:18:13.009Z,28.40
2018-05-01T14:20:44.353Z,28.42
2018-05-01T14:23:13.147Z,28.00
2018-05-01T14:25:42.810Z,27.84
2018-05-01T14:28:12.723Z,28.28
2018-05-01T14:30:41.873Z,29.18
2018-05-01T14:33:10.635Z,29.26
2018-05-01T14:35:40.218Z,28.91
2018-05-01T14:38:08.985Z,28.81
2018-05-01T14:40:37.795Z,28.73
2018-05-01T14:43:59.994Z,28.65
2018-05-01T14:46:30.903Z,28.45
2018-05-01T14:49:01.782Z,28.30
2018-05-01T14:51:32.331Z,28.71
2018-05-01T14:54:02.926Z,28.12
2018-05-01T14:56:33.750Z,28.04
2018-05-01T14:59:04.649Z,27.63
2018-05-01T15:01:36.027Z,27.85
2018-05-01T15:04:07.811Z,27.93
2018-05-01T15:06:39.383Z,28.07
2018-05-01T15:09:10.127Z,28.29
2018-05-01T15:11:40.545Z,28.13
2018-05-01T15:14:11.390Z,27.51
2018-05-01T15:16:41.832Z,27.67
2018-05-01T15:19:13.731Z,27.70
2018-05-01T15:21:44.546Z,26.96
2018-05-01T15:24:15.343Z,26.61
2018-05-01T15:26:46.492Z,26.78
2018-05-01T15:29:17.327Z,27.03
2018-05-01T15:31:48.013Z,26.97
2018-05-01T15:34:19.176Z,27.28
2018-05-01T15:36:52.448Z,27.39
2018-05-01T15:39:22.909Z,27.79
2018-05-01T15:41:54.054Z,27.89
2018-05-01T15:44:25.294Z,27.72
2018-05-01T15:46:55.921Z,27.51
2018-05-01T15:49:27.373Z,27.38
2018-05-01T15:51:58.109Z,27.23
2018-05-01T15:54:28.865Z,27.36
2018-05-01T15:56:59.568Z,27.20
2018-05-01T15:59:30.305Z,26.88
2018-05-01T16:02:02.047Z,26.71
2018-05-01T16:04:33.279Z,26.98
2018-05-01T16:07:04.569Z,26.82
2018-05-01T16:09:35.311Z,26.63
2018-05-01T16:12:06.019Z,26.54
2018-05-01T16:14:36.888Z,26.60
2018-05-01T16:17:07.723Z,26.04
2018-05-01T16:19:38.601Z,25.91
2018-05-01T16:22:09.292Z,25.90
2018-05-01T16:24:41.529Z,25.72
2018-05-01T16:27:13.432Z,25.89
2018-05-01T16:29:45.050Z,26.03
2018-05-01T16:32:15.905Z,25.99
2018-05-01T16:34:46.448Z,25.87
2018-05-01T16:37:17.254Z,25.68
2018-05-01T16:39:47.926Z,25.50
2018-05-01T16:42:19.010Z,25.45
2018-05-01T16:44:49.836Z,25.37
2018-05-01T16:47:20.847Z,25.21
2018-05-01T16:49:52.016Z,25.29
2018-05-01T16:52:22.756Z,25.41
2018-05-01T16:54:53.499Z,25.17
2018-05-01T16:57:24.185Z,25.33
2018-05-01T16:59:54.961Z,25.34
2018-05-01T17:02:26.156Z,25.46
2018-05-01T17:04:56.829Z,25.22
2018-05-01T17:07:27.472Z,25.14
2018-05-01T17:09:58.197Z,25.15
2018-05-01T17:12:28.803Z,24.93
2018-05-01T18:15:50.359Z,21.45
2018-05-01T18:18:21.103Z,21.87
2018-05-01T18:20:52.064Z,22.27
2018-05-01T18:23:22.807Z,22.76
2018-05-01T18:25:53.559Z,22.93
2018-05-01T18:28:24.384Z,22.95
2018-05-01T18:30:55.104Z,22.79
2018-05-01T18:33:25.526Z,22.89
2018-05-01T18:35:56.598Z,23.11
2018-05-01T18:38:27.868Z,23.22
2018-05-01T18:40:58.753Z,23.17
2018-05-01T18:43:29.752Z,23.11
2018-05-01T18:46:00.596Z,23.10
2018-05-01T18:48:31.577Z,22.85
2018-05-01T18:51:02.322Z,22.82
2018-05-01T18:53:33.008Z,22.65
2018-05-01T18:56:03.691Z,22.57
2018-05-01T18:58:34.563Z,22.78
2018-05-01T19:01:05.436Z,22.72
2018-05-01T19:03:36.149Z,22.46
2018-05-01T19:06:06.891Z,22.59
2018-05-01T19:08:37.520Z,22.60
2018-05-01T19:11:08.481Z,22.67
2018-05-01T19:13:39.291Z,22.48
2018-05-01T19:16:10.431Z,22.52
2018-05-01T19:18:41.600Z,22.62
2018-05-01T19:21:12.364Z,22.34
2018-05-01T19:23:43.143Z,22.31
2018-05-01T19:26:14.793Z,22.18
2018-05-01T19:28:46.725Z,22.24
2018-05-01T19:31:18.227Z,22.32
2018-05-01T19:33:49.220Z,22.34
2018-05-01T19:36:20.292Z,22.35
2018-05-01T19:38:51.155Z,22.37
2018-05-01T19:41:21.879Z,22.42
2018-05-01T19:43:52.668Z,22.41
2018-05-01T19:46:23.359Z,22.32
2018-05-01T19:48:54.878Z,22.27
2018-05-01T19:51:25.779Z,22.12
2018-05-01T19:53:56.511Z,22.03
2018-05-01T19:56:27.566Z,22.02
2018-05-01T19:58:58.404Z,22.05
2018-05-01T20:01:29.329Z,22.08
2018-05-01T20:03:59.972Z,22.08
2018-05-01T20:06:30.897Z,22.12
2018-05-01T20:09:01.700Z,22.33
2018-05-01T20:11:32.516Z,22.33
2018-05-01T20:14:03.290Z,22.18
2018-05-01T20:16:33.952Z,22.23
2018-05-01T20:19:04.800Z,21.85
2018-05-01T20:21:35.902Z,21.83
2018-05-01T20:24:06.434Z,22.23
2018-05-01T20:26:37.724Z,22.43
2018-05-01T20:29:08.589Z,22.07
2018-05-01T20:31:39.042Z,21.58
2018-05-01T20:34:10.045Z,21.47
2018-05-01T20:36:40.887Z,21.74
2018-05-01T20:39:11.866Z,21.61
2018-05-01T20:41:42.666Z,21.37
2018-05-01T20:44:13.637Z,21.44
2018-05-01T20:46:44.605Z,21.41
2018-05-01T20:49:15.423Z,20.89
2018-05-01T20:51:47.122Z,20.85
2018-05-01T20:54:18.722Z,21.31
2018-05-01T20:56:49.198Z,21.46
2018-05-01T20:59:20.638Z,21.38
2018-05-01T21:01:51.400Z,21.20
2018-05-01T21:04:22.051Z,21.24
2018-05-01T21:06:52.761Z,21.13
2018-05-01T21:09:23.400Z,21.20
2018-05-01T21:11:54.096Z,21.31
2018-05-01T21:14:24.807Z,21.33
2018-05-01T21:16:55.368Z,21.26
2018-05-01T21:19:26.262Z,21.22
2018-05-01T21:21:56.933Z,21.28
2018-05-01T21:24:27.654Z,21.27
2018-05-01T21:26:58.277Z,21.27
2018-05-01T21:29:28.920Z,21.33
2018-05-01T21:31:59.848Z,21.31
2018-05-01T21:34:30.592Z,21.20
2018-05-01T21:37:01.300Z,21.11
2018-05-01T21:39:32.458Z,21.10
2018-05-01T21:42:03.257Z,21.13
2018-05-01T21:44:33.921Z,21.12
2018-05-01T21:47:04.548Z,21.06
2018-05-01T21:49:35.295Z,20.95
2018-05-01T21:52:05.956Z,20.99
2018-05-01T21:54:36.523Z,21.06
2018-05-01T21:57:07.171Z,21.23
2018-05-01T21:59:37.772Z,21.24
2018-05-01T22:02:08.358Z,21.11
2018-05-01T22:04:39.084Z,21.09
2018-05-01T22:07:09.756Z,21.07
2018-05-01T22:09:40.361Z,21.15
2018-05-01T22:12:11.056Z,20.95
2018-05-01T22:14:42.189Z,21.00
2018-05-01T22:17:13.065Z,21.06
2018-05-01T22:19:43.649Z,20.84
2018-05-01T22:22:14.510Z,20.89
2018-05-01T22:24:45.425Z,21.09
2018-05-01T22:27:16.028Z,21.41
2018-05-01T22:29:46.764Z,21.23
2018-05-01T22:32:18.292Z,21.17
2018-05-01T22:34:49.852Z,21.24
2018-05-01T22:37:20.948Z,21.06
2018-05-01T22:39:51.803Z,20.93
2018-05-01T22:42:22.450Z,20.92
2018-05-01T22:44:53.595Z,20.51
2018-05-01T22:47:24.405Z,20.20
2018-05-01T22:49:55.019Z,20.48
2018-05-01T22:52:25.717Z,19.63
2018-05-01T22:54:56.373Z,19.85
2018-05-01T22:57:26.997Z,19.68
2018-05-01T22:59:57.653Z,19.41
2018-05-01T23:02:28.348Z,19.94
2018-05-01T23:04:58.713Z,19.68
2018-05-01T23:07:30.199Z,19.48
2018-05-01T23:10:01.086Z,19.96
2018-05-01T23:12:31.781Z,19.88
2018-05-01T23:15:02.400Z,19.86
2018-05-01T23:17:33.161Z,20.35
2018-05-01T23:20:03.563Z,20.27
2018-05-01T23:22:35.955Z,19.68
2018-05-01T23:25:06.433Z,19.66
2018-05-01T23:27:37.179Z,19.94
2018-05-01T23:30:07.713Z,19.80
2018-05-01T23:32:38.859Z,19.87
2018-05-01T23:35:09.623Z,20.03
2018-05-01T23:37:40.304Z,19.99
2018-05-01T23:40:10.924Z,19.94
2018-05-01T23:42:41.710Z,19.90
2018-05-01T23:45:12.116Z,19.66
2018-05-01T23:47:42.833Z,19.81
2018-05-01T23:50:13.567Z,19.87
2018-05-01T23:52:44.236Z,19.73
2018-05-01T23:55:15.473Z,19.67
2018-05-01T23:57:46.302Z,19.76
